Saturday, November 18, 2017, 4:39 PM EST
Back to Local

KUNV, State College, University Park Airport

Location: State College, PA, United States Lat: 40.85
Local Time: 4:39 PM EST (21:39 GMT) Lon: -77.85
Time Zone: US/Eastern Elev: 1240 ft

Show me the last for .
Show Decoded

2017-11-18 15:53 METAR KUNV 182053Z 00000KT 7SM BKN009 OVC012 04/03 A2953 =
2017-11-18 14:53 METAR KUNV 181953Z 21008KT 4SM RA BKN013 OVC019 04/03 A2956 =
2017-11-18 14:20 METAR KUNV 181920Z 23008KT 3SM RA BKN013 OVC034 04/03 A2958 =
2017-11-18 13:53 METAR KUNV 181853Z 23008KT 7SM -DZ SCT011 OVC034 04/03 A2959 =
2017-11-18 12:53 METAR KUNV 181753Z 27007KT 8SM OVC036 04/03 A2962 =
2017-11-18 11:53 METAR KUNV 181653Z 24005KT 5SM -RA SCT004 SCT011 OVC036 03/03 A2967 =
2017-11-18 10:53 METAR KUNV 181553Z 24005KT 5SM BR BKN008 BKN028 OVC033 03/02 A2973 =
2017-11-18 09:53 METAR KUNV 181453Z 00000KT 4SM RA SCT030 OVC039 01/01 A2974 =
2017-11-18 09:17 METAR KUNV 181417Z 00000KT 3SM RA SCT028 BKN036 OVC046 01/00 A2975 =
2017-11-18 08:53 METAR KUNV 181353Z 00000KT 2 1/2SM RA OVC032 00/00 A2979 =
2017-11-18 08:36 METAR KUNV 181336Z 00000KT 2 1/2SM RA BKN030 BKN037 OVC045 00/M01 A2979 =
2017-11-18 08:22 METAR KUNV 181322Z 00000KT 1 1/2SM RA BKN030 OVC047 00/M01 A2979 =
2017-11-18 07:53 METAR KUNV 181253Z 00000KT 3SM RA SCT032 BKN044 OVC070 00/M01 A2980 =
2017-11-18 07:28 METAR KUNV 181228Z 00000KT 3SM -RA SCT040 BKN070 OVC090 00/M02 A2982 =
2017-11-18 06:53 METAR KUNV 181153Z 00000KT 10SM BKN100 M01/M02 A2980 =
2017-11-18 05:53 METAR KUNV 181053Z 00000KT 10SM BKN100 M01/M03 A2982 =
2017-11-18 05:35 METAR KUNV 181035Z AUTO 00000KT 10SM SCT120 M01/M03 A2983 RMK AO2 T10071030 =
2017-11-18 05:15 METAR KUNV 181015Z AUTO 00000KT 10SM CLR M01/M03 A2983 RMK AO2 T10111030 =
2017-11-18 04:55 METAR KUNV 180955Z AUTO 00000KT 10SM CLR M01/M03 A2984 RMK AO2 T10141032 =
2017-11-18 04:35 METAR KUNV 180935Z AUTO 32003KT 10SM CLR M01/M03 A2985 RMK AO2 T10111033 =
2017-11-18 04:15 METAR KUNV 180915Z AUTO 00000KT 10SM CLR M01/M04 A2986 RMK AO2 T10121037 =
2017-11-18 03:55 METAR KUNV 180855Z AUTO 00000KT 10SM CLR M02/M04 A2989 RMK AO2 T10161039 =
2017-11-18 03:35 METAR KUNV 180835Z AUTO 00000KT 10SM CLR M02/M04 A2990 RMK AO2 T10161040 =
2017-11-18 03:15 METAR KUNV 180815Z AUTO 00000KT 10SM CLR M02/M04 A2991 RMK AO2 T10211041 =
2017-11-18 02:55 METAR KUNV 180755Z AUTO 00000KT 10SM CLR M01/M04 A2991 RMK AO2 T10141042 =
2017-11-18 02:35 METAR KUNV 180735Z AUTO 00000KT 10SM CLR M01/M04 A2991 RMK AO2 T10121041 =
2017-11-18 02:15 METAR KUNV 180715Z AUTO 00000KT 10SM CLR M01/M04 A2992 RMK AO2 T10121040 =
2017-11-18 01:55 METAR KUNV 180655Z AUTO 00000KT 10SM CLR M01/M04 A2993 RMK AO2 T10131043 =
2017-11-18 01:35 METAR KUNV 180635Z AUTO 00000KT 10SM CLR M01/M04 A2994 RMK AO2 T10121041 =
2017-11-18 01:15 METAR KUNV 180615Z AUTO 00000KT 10SM CLR M01/M04 A2995 RMK AO2 T10071043 =
2017-11-18 00:55 METAR KUNV 180555Z AUTO 00000KT 10SM CLR 00/M04 A2996 RMK AO2 T10011040 10020
                 21015 =
2017-11-18 00:35 METAR KUNV 180535Z AUTO 00000KT 10SM CLR M01/M04 A2997 RMK AO2 T10151041 =
2017-11-18 00:15 METAR KUNV 180515Z AUTO 00000KT 10SM CLR 00/M04 A2999 RMK AO2 T10051040 =
2017-11-17 23:55 METAR KUNV 180455Z AUTO 00000KT 10SM CLR M01/M04 A3000 RMK AO2 T10091037 =
2017-11-17 23:35 METAR KUNV 180435Z AUTO 26006KT 10SM CLR 00/M03 A3000 RMK AO2 T10011035 =
2017-11-17 23:15 METAR KUNV 180415Z AUTO 25003KT 10SM CLR 00/M03 A3001 RMK AO2 T10011035 =
2017-11-17 22:55 METAR KUNV 180355Z AUTO 27003KT 10SM CLR 00/M03 A3002 RMK AO2 T10011033
                 400651013 =
2017-11-17 22:35 METAR KUNV 180335Z AUTO 26004KT 10SM CLR 00/M03 A3003 RMK AO2 T10011032 =
2017-11-17 22:15 METAR KUNV 180315Z AUTO 23003KT 10SM CLR M01/M04 A3004 RMK AO2 T10081036 =
2017-11-17 21:53 METAR KUNV 180253Z 00000KT 10SM SKC M01/M04 A3005 =
2017-11-17 20:53 METAR KUNV 180153Z 00000KT 10SM SKC 00/M04 A3006 =
2017-11-17 19:53 METAR KUNV 180053Z 00000KT 10SM SKC 00/M04 A3007 =
2017-11-17 18:53 METAR KUNV 172353Z 00000KT 10SM SKC 02/M04 A3010 =
2017-11-17 17:53 METAR KUNV 172253Z 00000KT 10SM SKC 03/M04 A3010 =
2017-11-17 16:53 METAR KUNV 172153Z 00000KT 10SM SKC 04/M04 A3012 =

Support USWX by starting your Amazon purchase here.